Time;durP1;ratioP1;P1;durP2;ratioP2;P2;SDS_P1;SDS_P2;PMS_P1;PMS_P2;Temp;Humidity;BMP_temperature;BMP_pressure;BME280_temperature;BME280_humidity;BME280_pressure;Samples;Min_cycle;Max_cycle;Signal;HPM_P1;HPM_P2
2021/09/02 00:08:48;;;;;;;4.60;3.50;;;;;;;11.27;80.99;100066.61;456362;1194;142181;-63
2021/09/02 00:18:51;;;;;;;8.90;5.10;;;;;;;11.19;81.24;100064.23;456979;1194;142852;-61
2021/09/02 00:28:55;;;;;;;4.70;3.40;;;;;;;11.19;81.37;100068.45;455578;1195;141275;-63
2021/09/02 00:38:59;;;;;;;6.70;4.00;;;;;;;11.15;81.51;100079.36;457543;1194;141361;-64
2021/09/02 00:49:02;;;;;;;18.10;11.30;;;;;;;11.08;81.70;100076.45;457061;1194;141471;-64
2021/09/02 00:59:05;;;;;;;8.00;5.70;;;;;;;11.03;81.99;100079.58;456023;1195;143400;-61
2021/09/02 01:09:08;;;;;;;5.30;4.50;;;;;;;10.97;82.08;100084.63;463383;1194;142555;-63
2021/09/02 01:19:25;;;;;;;5.20;4.30;;;;;;;10.95;82.18;100080.55;472446;1194;140851;-63
2021/09/02 01:29:28;;;;;;;6.40;5.60;;;;;;;10.97;82.23;100076.95;472121;1182;142161;-63
2021/09/02 01:39:32;;;;;;;5.30;4.50;;;;;;;10.96;82.25;100075.21;472719;1193;141723;-63
2021/09/02 01:49:35;;;;;;;8.10;4.70;;;;;;;10.92;82.19;100082.09;472713;1194;142285;-63
2021/09/02 01:59:38;;;;;;;5.80;4.20;;;;;;;10.81;82.09;100089.22;472224;1183;141949;-63
2021/09/02 02:09:41;;;;;;;6.50;4.70;;;;;;;10.68;82.41;100093.98;472581;1194;141651;-64
2021/09/02 02:19:44;;;;;;;8.00;5.10;;;;;;;10.58;82.52;100095.90;468272;1194;142621;-64
2021/09/02 02:29:48;;;;;;;7.90;4.40;;;;;;;10.46;82.54;100099.92;473036;1190;141725;-64
2021/09/02 02:39:51;;;;;;;7.00;4.50;;;;;;;10.30;82.86;100097.95;472830;1194;142075;-64
2021/09/02 02:49:54;;;;;;;9.80;5.80;;;;;;;10.11;83.08;100105.11;472106;1183;141472;-63
2021/09/02 02:59:57;;;;;;;10.80;5.10;;;;;;;9.94;83.40;100107.20;472863;1183;142367;-64
2021/09/02 03:10:01;;;;;;;9.00;5.50;;;;;;;9.83;83.59;100104.31;472859;1194;142424;-64
2021/09/02 03:20:07;;;;;;;7.10;5.20;;;;;;;9.63;83.46;100103.23;471998;1194;142351;-63
2021/09/02 03:30:12;;;;;;;8.20;4.20;;;;;;;9.41;83.56;100112.91;467207;1194;142017;-63
2021/09/02 03:40:16;;;;;;;5.10;4.10;;;;;;;9.35;83.93;100124.21;472834;1194;140916;-63
2021/09/02 03:50:20;;;;;;;10.10;4.70;;;;;;;9.29;83.79;100123.47;472057;1194;140699;-63
2021/09/02 04:00:23;;;;;;;8.90;4.10;;;;;;;9.14;83.68;100123.16;472886;1194;141469;-63
2021/09/02 04:10:27;;;;;;;17.00;4.90;;;;;;;9.04;83.78;100115.93;465218;1194;141112;-61
2021/09/02 04:20:31;;;;;;;9.20;5.20;;;;;;;9.18;83.72;100113.73;462157;1194;140733;-62
2021/09/02 04:30:35;;;;;;;7.30;4.70;;;;;;;9.51;83.48;100112.55;468181;1191;141613;-62
2021/09/02 04:40:38;;;;;;;9.00;4.40;;;;;;;9.79;83.28;100108.52;471675;1194;142432;-64
2021/09/02 04:50:42;;;;;;;7.60;4.80;;;;;;;10.16;83.08;100106.36;472451;1194;142329;-63
2021/09/02 05:00:45;;;;;;;7.70;4.30;;;;;;;10.59;82.97;100115.85;472953;1182;141121;-64
2021/09/02 05:10:50;;;;;;;10.90;4.90;;;;;;;11.04;82.50;100121.36;472319;1182;144391;-63
2021/09/02 05:20:54;;;;;;;10.50;5.30;;;;;;;11.62;82.19;100125.33;472895;1194;141438;-64
2021/09/02 05:30:58;;;;;;;7.30;5.20;;;;;;;12.46;81.24;100128.20;472803;1194;141743;-64
2021/09/02 05:41:01;;;;;;;22.10;5.60;;;;;;;14.64;80.68;100128.56;472013;1194;141608;-63
2021/09/02 05:51:04;;;;;;;10.50;5.00;;;;;;;18.58;73.90;100134.50;472805;1194;140744;-63
2021/09/02 06:01:07;;;;;;;7.20;3.90;;;;;;;20.85;69.35;100146.93;472900;1194;141688;-64
2021/09/02 06:11:11;;;;;;;4.90;3.80;;;;;;;26.09;62.84;100150.45;472156;1194;143088;-65
2021/09/02 06:21:14;;;;;;;5.00;4.50;;;;;;;30.28;55.18;100143.57;469489;1194;141645;-65
2021/09/02 06:31:18;;;;;;;6.60;3.50;;;;;;;33.03;47.94;100143.52;462834;1194;140874;-63
2021/09/02 06:41:21;;;;;;;4.70;4.10;;;;;;;35.71;43.23;100141.79;466503;1194;140722;-64
2021/09/02 06:51:24;;;;;;;4.90;3.40;;;;;;;38.03;39.21;100150.73;472867;1194;141090;-64
2021/09/02 07:01:27;;;;;;;;;;;;;;;39.94;35.16;100153.45;472649;1194;140864;-62
2021/09/02 07:11:30;;;;;;;6.00;3.50;;;;;;;40.95;32.34;100153.95;472316;1194;128482;-63
2021/09/02 07:21:34;;;;;;;3.30;3.00;;;;;;;42.68;30.10;100150.52;472711;1194;141325;-63
2021/09/02 07:31:39;;;;;;;3.10;2.90;;;;;;;43.70;27.37;100139.61;472697;1194;141103;-60
2021/09/02 07:41:43;;;;;;;3.00;2.80;;;;;;;43.10;25.75;100140.69;472402;1194;144981;-61
2021/09/02 07:51:47;;;;;;;3.90;3.10;;;;;;;42.30;24.91;100146.23;469831;1194;141615;-61
2021/09/02 08:01:51;;;;;;;7.20;3.90;;;;;;;40.15;23.61;100142.61;472184;1194;141750;-60
2021/09/02 08:11:56;;;;;;;3.30;2.80;;;;;;;39.12;23.53;100152.11;472988;1194;140391;-59
2021/09/02 08:22:00;;;;;;;5.20;2.50;;;;;;;40.98;22.81;100156.79;464928;1194;10001696;-62
2021/09/02 08:32:04;;;;;;;3.60;2.40;;;;;;;40.38;21.63;100151.99;471865;1194;141863;-61
2021/09/02 08:42:08;;;;;;;3.30;2.00;;;;;;;33.65;24.20;100154.33;472905;1194;141136;-61
2021/09/02 08:52:12;;;;;;;4.00;2.60;;;;;;;27.35;28.55;100147.01;472878;1194;141342;-61
2021/09/02 09:02:27;;;;;;;4.20;2.20;;;;;;;24.15;32.79;100150.70;468824;1194;141072;-59
2021/09/02 09:12:36;;;;;;;4.80;2.50;;;;;;;23.02;35.51;100152.29;459588;1195;141566;-60
2021/09/02 09:22:40;;;;;;;5.50;3.60;;;;;;;22.18;37.81;100149.00;472900;1193;141701;-60
2021/09/02 09:32:45;;;;;;;5.10;4.00;;;;;;;21.92;38.86;100150.25;463422;1194;141189;-60
2021/09/02 09:43:00;;;;;;;3.70;3.30;;;;;;;22.01;39.82;100153.30;472788;1194;142666;-60
2021/09/02 09:53:24;;;;;;;4.60;3.20;;;;;;;22.40;40.36;100156.35;472174;1192;143690;-60
2021/09/02 10:03:29;;;;;;;4.50;3.00;;;;;;;22.32;40.73;100154.73;467796;1194;142545;-61
2021/09/02 10:13:33;;;;;;;4.20;3.20;;;;;;;22.37;40.83;100151.36;468348;1195;141695;-59
2021/09/02 10:23:38;;;;;;;7.20;3.40;;;;;;;21.39;42.51;100158.63;472001;1194;142834;-61
2021/09/02 10:33:43;;;;;;;7.70;4.50;;;;;;;20.32;44.48;100153.14;473028;1190;143146;-61
2021/09/02 10:43:48;;;;;;;5.20;3.60;;;;;;;20.00;45.29;100156.77;472011;1194;140730;-60
2021/09/02 10:54:00;;;;;;;6.40;5.40;;;;;;;19.47;46.59;100171.77;472830;1195;141979;-60
2021/09/02 11:04:13;;;;;;;5.50;4.10;;;;;;;19.54;47.42;100171.83;472471;1195;141763;-60
2021/09/02 11:14:16;;;;;;;6.10;4.00;;;;;;;19.83;47.68;100177.80;472082;1194;140673;-61
2021/09/02 11:24:21;;;;;;;4.00;2.90;;;;;;;20.03;48.26;100179.86;472503;1195;141066;-60
2021/09/02 11:34:24;;;;;;;4.90;4.40;;;;;;;20.15;48.15;100179.66;468929;1194;140722;-59
2021/09/02 11:44:31;;;;;;;3.80;2.70;;;;;;;20.14;48.57;100184.58;471892;1194;141335;-60
2021/09/02 11:54:36;;;;;;;5.00;3.90;;;;;;;19.58;49.43;100186.04;464761;1191;142205;-59
2021/09/02 12:04:39;;;;;;;5.20;3.30;;;;;;;19.65;49.62;100188.58;472899;1192;140327;-59
2021/09/02 12:14:44;;;;;;;3.80;3.40;;;;;;;20.19;49.09;100186.73;458800;1194;140303;-59
2021/09/02 12:24:47;;;;;;;5.60;2.90;;;;;;;20.51;48.60;100180.67;469522;1194;150577;-60
2021/09/02 12:34:50;;;;;;;3.10;2.70;;;;;;;20.35;48.53;100183.82;471977;1193;141126;-58
2021/09/02 12:45:09;;;;;;;3.50;3.20;;;;;;;19.43;49.02;100177.92;472752;1194;141803;-62
2021/09/02 12:55:17;;;;;;;4.00;3.10;;;;;;;19.24;49.30;100188.05;459396;1195;141234;-63
2021/09/02 13:05:20;;;;;;;5.10;2.70;;;;;;;19.50;49.28;100186.25;471897;1193;142605;-59
2021/09/02 13:15:25;;;;;;;8.10;3.30;;;;;;;19.54;49.53;100182.63;471303;1194;140735;-71
2021/09/02 13:25:28;;;;;;;6.30;2.80;;;;;;;19.40;49.41;100178.27;467486;1194;141808;-60
2021/09/02 13:35:32;;;;;;;4.10;2.50;;;;;;;19.27;49.39;100167.69;458056;1195;142368;-60
2021/09/02 13:45:35;;;;;;;3.70;2.30;;;;;;;19.53;49.65;100162.36;471974;1194;140928;-59
2021/09/02 13:55:39;;;;;;;4.90;2.60;;;;;;;19.63;49.18;100153.79;463448;1195;140440;-59
2021/09/02 14:05:42;;;;;;;5.00;2.30;;;;;;;19.51;49.34;100145.98;462095;1194;141563;-59
2021/09/02 14:15:45;;;;;;;2.40;2.20;;;;;;;19.61;49.25;100140.26;471113;1194;201821;-58
2021/09/02 14:25:48;;;;;;;6.30;2.60;;;;;;;19.64;49.20;100142.85;464874;1195;141728;-59
2021/09/02 14:35:51;;;;;;;5.40;3.10;;;;;;;19.80;49.01;100144.24;462464;1194;141564;-59
2021/09/02 14:45:55;;;;;;;2.90;2.30;;;;;;;19.77;49.21;100143.77;470095;1194;141749;-60
2021/09/02 14:55:58;;;;;;;2.00;1.90;;;;;;;19.86;49.46;100141.27;471695;1183;140725;-61
2021/09/02 15:06:01;;;;;;;2.40;2.20;;;;;;;19.94;49.30;100139.46;472213;1194;142270;-60
2021/09/02 15:16:05;;;;;;;2.90;2.50;;;;;;;19.79;48.88;100130.46;471489;1194;141081;-60
2021/09/02 15:26:08;;;;;;;7.30;2.80;;;;;;;19.53;49.20;100125.94;454965;1194;20002224;-61
2021/09/02 15:36:12;;;;;;;4.00;1.50;;;;;;;19.54;49.31;100118.06;472406;1194;141509;-61
2021/09/02 15:46:16;;;;;;;5.40;3.10;;;;;;;19.52;48.92;100121.91;472598;1183;141710;-60
2021/09/02 15:56:20;;;;;;;2.70;2.20;;;;;;;19.28;48.65;100120.24;465762;1183;140567;-60
2021/09/02 16:06:25;;;;;;;2.80;1.90;;;;;;;19.05;48.50;100112.21;472529;1194;141671;-60
2021/09/02 16:16:29;;;;;;;4.30;1.50;;;;;;;18.76;48.32;100100.20;469006;1194;141865;-59
2021/09/02 16:26:32;;;;;;;3.80;2.20;;;;;;;18.43;48.91;100100.30;466673;1194;142150;-61
2021/09/02 16:36:35;;;;;;;3.00;2.00;;;;;;;18.16;49.65;100101.25;470435;1194;140851;-57
2021/09/02 16:46:38;;;;;;;8.60;2.20;;;;;;;17.94;50.70;100100.86;469511;1194;141387;-59
2021/09/02 16:56:42;;;;;;;5.70;3.50;;;;;;;17.68;51.36;100104.85;472757;1194;141029;-60
2021/09/02 17:06:46;;;;;;;5.00;2.60;;;;;;;17.38;52.19;100102.59;472662;1194;140888;-60
2021/09/02 17:16:49;;;;;;;2.90;2.40;;;;;;;17.03;53.29;100110.44;468871;1194;141540;-59
2021/09/02 17:26:53;;;;;;;6.90;2.70;;;;;;;16.60;54.93;100120.56;472719;1194;140777;-59
2021/09/02 17:36:57;;;;;;;14.30;2.90;;;;;;;16.10;56.98;100119.45;472769;1194;141274;-60
2021/09/02 17:47:00;;;;;;;12.50;3.50;;;;;;;15.60;58.53;100127.28;472117;1183;142185;-59
2021/09/02 17:57:06;;;;;;;10.70;4.20;;;;;;;15.15;59.87;100133.34;457108;1194;141549;-58
2021/09/02 18:07:09;;;;;;;9.70;3.60;;;;;;;14.72;61.08;100144.34;462682;1194;142693;-60
2021/09/02 18:17:12;;;;;;;3.80;2.50;;;;;;;14.32;62.38;100153.70;466056;1193;141581;-62
2021/09/02 18:27:16;;;;;;;11.10;4.10;;;;;;;13.93;63.55;100157.09;472578;1193;141083;-63
2021/09/02 18:37:20;;;;;;;13.50;4.00;;;;;;;13.57;64.43;100160.36;460053;1195;141722;-61
2021/09/02 18:47:28;;;;;;;10.00;3.30;;;;;;;13.23;65.30;100162.59;471211;1194;145471;-62
2021/09/02 18:57:31;;;;;;;8.50;4.50;;;;;;;12.92;66.10;100163.23;472716;1194;142382;-62
2021/09/02 19:07:38;;;;;;;15.00;6.70;;;;;;;12.65;66.76;100167.94;461410;1194;142482;-61
2021/09/02 19:17:44;;;;;;;23.30;7.40;;;;;;;12.39;67.73;100165.66;464468;1195;141915;-61
2021/09/02 19:27:53;;;;;;;20.10;8.50;;;;;;;12.18;68.64;100153.61;471363;1194;142956;-62
2021/09/02 19:37:57;;;;;;;9.20;3.80;;;;;;;11.98;69.02;100155.70;460585;1194;142465;-64
2021/09/02 19:48:01;;;;;;;17.90;7.80;;;;;;;11.70;69.60;100156.81;472119;1194;141801;-63
2021/09/02 19:58:27;;;;;;;18.70;7.90;;;;;;;11.47;70.08;100159.36;472529;1194;141967;-64
2021/09/02 20:08:31;;;;;;;18.00;11.40;;;;;;;11.29;70.52;100164.27;469633;1191;145360;-62
2021/09/02 20:18:36;;;;;;;29.10;15.90;;;;;;;11.10;70.83;100166.77;472582;1194;142458;-63
2021/09/02 20:28:42;;;;;;;30.50;19.20;;;;;;;10.96;71.39;100167.88;464666;1194;143102;-63
2021/09/02 20:38:50;;;;;;;27.30;15.90;;;;;;;10.81;71.58;100168.36;472573;1194;142659;-63
2021/09/02 20:49:00;;;;;;;31.80;18.10;;;;;;;10.63;71.92;100168.63;470491;1194;142700;-63
2021/09/02 20:59:05;;;;;;;26.60;17.40;;;;;;;10.52;72.35;100169.29;471087;1194;142094;-62
2021/09/02 21:09:10;;;;;;;16.80;11.20;;;;;;;10.35;72.55;100175.41;466983;1194;145590;-63
2021/09/02 21:19:14;;;;;;;17.20;11.20;;;;;;;10.19;72.86;100181.46;457394;1194;10002122;-63
2021/09/02 21:29:28;;;;;;;20.20;11.60;;;;;;;10.02;73.04;100181.64;457292;1194;143421;-61
2021/09/02 21:39:42;;;;;;;20.40;14.50;;;;;;;9.86;73.44;100192.80;457716;1194;142470;-61
2021/09/02 21:49:46;;;;;;;22.10;14.20;;;;;;;9.68;73.76;100191.09;455674;1192;141388;-59
2021/09/02 21:59:53;;;;;;;19.10;11.70;;;;;;;9.53;73.95;100196.73;458151;1194;141268;-61
2021/09/02 22:09:56;;;;;;;26.30;15.70;;;;;;;9.34;74.44;100199.41;464613;1194;142151;-59
2021/09/02 22:20:05;;;;;;;24.90;15.10;;;;;;;9.25;74.84;100205.63;457537;1194;146373;-59
2021/09/02 22:30:09;;;;;;;;;;;;;;;9.14;75.11;100197.20;458646;1202;141476;-64
2021/09/02 22:40:14;;;;;;;26.50;16.10;;;;;;;9.08;75.49;100192.10;457429;1195;186878;-63
2021/09/02 22:50:18;;;;;;;29.90;16.70;;;;;;;8.94;75.31;100185.05;456626;1195;142422;-63
2021/09/02 23:00:22;;;;;;;19.70;11.30;;;;;;;8.83;75.64;100178.95;456985;1196;142195;-64
2021/09/02 23:10:37;;;;;;;19.40;11.80;;;;;;;8.72;75.74;100177.03;456855;1194;142830;-63
2021/09/02 23:20:40;;;;;;;16.80;11.30;;;;;;;8.55;75.84;100173.27;456463;1201;145160;-63
2021/09/02 23:30:44;;;;;;;22.30;14.70;;;;;;;8.43;76.03;100173.05;461622;1195;142240;-63
2021/09/02 23:40:50;;;;;;;19.50;13.90;;;;;;;8.34;76.28;100161.09;472028;1194;143045;-63
2021/09/02 23:50:53;;;;;;;20.40;14.30;;;;;;;8.27;76.35;100157.55;472912;1194;142642;-63
